createdAt,value
2019-02-07T00:00:14.138Z,0.90
2019-02-07T00:02:42.797Z,1.00
2019-02-07T00:05:11.685Z,1.10
2019-02-07T00:07:40.276Z,1.00
2019-02-07T00:10:11.841Z,1.10
2019-02-07T00:12:40.496Z,1.10
2019-02-07T00:15:10.959Z,1.20
2019-02-07T00:17:39.680Z,1.20
2019-02-07T00:20:17.184Z,1.20
2019-02-07T00:22:45.772Z,0.90
2019-02-07T00:25:14.477Z,1.00
2019-02-07T00:27:43.127Z,1.00
2019-02-07T00:30:19.593Z,0.90
2019-02-07T00:32:48.245Z,1.00
2019-02-07T00:35:17.048Z,1.10
2019-02-07T00:37:45.784Z,1.20
2019-02-07T00:40:19.374Z,1.20
2019-02-07T00:42:48.300Z,1.10
2019-02-07T00:45:18.095Z,1.10
2019-02-07T00:47:47.021Z,1.20
2019-02-07T00:50:19.293Z,1.20
2019-02-07T00:52:48.017Z,1.30
2019-02-07T00:55:17.917Z,1.30
2019-02-07T00:57:46.751Z,1.30
2019-02-07T01:00:23.556Z,1.40
2019-02-07T01:02:52.379Z,1.30
2019-02-07T01:05:22.048Z,1.20
2019-02-07T01:07:51.380Z,1.30
2019-02-07T01:10:25.565Z,1.40
2019-02-07T01:12:54.395Z,1.40
2019-02-07T01:15:23.865Z,1.40
2019-02-07T01:17:52.588Z,1.40
2019-02-07T01:20:21.283Z,1.40
2019-02-07T01:22:50.316Z,1.50
2019-02-07T01:25:21.880Z,1.50
2019-02-07T01:27:50.607Z,1.50
2019-02-07T01:30:25.920Z,1.60
2019-02-07T01:32:54.616Z,1.50
2019-02-07T01:35:23.342Z,1.50
2019-02-07T01:37:52.280Z,1.50
2019-02-07T01:40:21.611Z,1.50
2019-02-07T01:42:50.316Z,1.50
2019-02-07T01:45:20.928Z,1.50
2019-02-07T01:47:53.096Z,1.50
2019-02-07T01:50:23.523Z,1.60
2019-02-07T01:52:52.418Z,1.60
2019-02-07T01:55:21.345Z,1.70
2019-02-07T01:57:50.049Z,1.70
2019-02-07T02:00:19.580Z,1.70
2019-02-07T02:02:48.673Z,1.70
2019-02-07T02:05:19.212Z,1.80
2019-02-07T02:07:48.499Z,1.80
2019-02-07T02:10:27.837Z,1.80
2019-02-07T02:12:56.834Z,1.70
2019-02-07T02:15:25.732Z,1.80
2019-02-07T02:17:54.620Z,1.80
2019-02-07T02:20:25.411Z,1.80
2019-02-07T02:22:55.307Z,1.80
2019-02-07T02:25:24.440Z,1.80
2019-02-07T02:27:53.243Z,1.80
2019-02-07T02:30:24.200Z,1.80
2019-02-07T02:32:52.900Z,1.90
2019-02-07T02:35:21.932Z,1.90
2019-02-07T02:37:50.563Z,1.90
2019-02-07T02:40:19.149Z,1.90
2019-02-07T02:42:47.952Z,1.80
2019-02-07T02:45:18.992Z,1.80
2019-02-07T02:47:47.677Z,1.80
2019-02-07T02:50:18.612Z,1.90
2019-02-07T02:52:47.409Z,1.80
2019-02-07T02:55:26.810Z,1.80
2019-02-07T02:57:55.368Z,1.80
2019-02-07T03:00:41.760Z,1.80
2019-02-07T03:03:12.022Z,1.80
2019-02-07T03:05:48.272Z,1.80
2019-02-07T03:08:34.859Z,1.80
2019-02-07T03:11:13.940Z,1.80
2019-02-07T03:13:44.137Z,1.80
2019-02-07T03:16:14.379Z,1.90
2019-02-07T03:18:44.568Z,1.90
2019-02-07T03:21:32.800Z,1.80
2019-02-07T03:24:06.011Z,1.90
2019-02-07T03:26:42.347Z,1.90
2019-02-07T03:29:18.536Z,1.90
2019-02-07T03:31:48.767Z,1.80
2019-02-07T03:34:30.794Z,1.80
2019-02-07T03:37:04.057Z,1.90
2019-02-07T03:39:34.329Z,2.10
2019-02-07T03:42:04.568Z,2.00
2019-02-07T03:44:46.901Z,2.10
2019-02-07T03:47:23.088Z,2.10
2019-02-07T03:50:02.277Z,2.10
2019-02-07T03:52:32.639Z,2.20
2019-02-07T03:55:02.841Z,2.20
2019-02-07T03:57:33.132Z,2.20
2019-02-07T04:00:15.136Z,2.20
2019-02-07T04:02:54.423Z,2.20
2019-02-07T04:05:31.759Z,2.10
2019-02-07T04:08:07.899Z,2.20
2019-02-07T04:10:53.235Z,2.20
2019-02-07T04:13:26.153Z,2.30
2019-02-07T04:16:15.312Z,2.40
2019-02-07T04:18:45.457Z,2.40
2019-02-07T04:21:24.388Z,2.50
2019-02-07T04:23:54.619Z,2.40
2019-02-07T04:26:43.041Z,2.20
2019-02-07T04:29:22.369Z,2.20
2019-02-07T04:31:55.326Z,2.30
2019-02-07T04:34:41.550Z,2.30
2019-02-07T04:37:11.749Z,2.30
2019-02-07T04:39:44.768Z,2.40
2019-02-07T04:42:20.571Z,2.50
2019-02-07T04:44:53.721Z,2.50
2019-02-07T04:47:35.878Z,2.50
2019-02-07T04:50:12.171Z,2.50
2019-02-07T04:52:48.432Z,2.50
2019-02-07T04:55:21.528Z,2.50
2019-02-07T04:57:54.488Z,2.50
2019-02-07T05:00:39.606Z,2.50
2019-02-07T05:03:09.941Z,2.50
2019-02-07T05:05:40.371Z,2.60
2019-02-07T05:08:28.440Z,2.60
2019-02-07T05:11:13.307Z,2.70
2019-02-07T05:13:43.808Z,2.70
2019-02-07T05:16:25.487Z,2.80
2019-02-07T05:18:58.399Z,2.70
2019-02-07T05:21:31.440Z,2.80
2019-02-07T05:24:10.427Z,2.70
2019-02-07T05:26:49.094Z,2.80
2019-02-07T05:29:22.056Z,2.90
2019-02-07T05:32:09.870Z,2.90
2019-02-07T05:34:40.100Z,2.90
2019-02-07T05:37:13.101Z,2.90
2019-02-07T05:39:59.580Z,2.90
2019-02-07T05:42:44.770Z,2.90
2019-02-07T05:45:18.024Z,2.90
2019-02-07T05:48:04.039Z,3.00
2019-02-07T05:50:40.568Z,2.90
2019-02-07T05:53:25.756Z,2.80
2019-02-07T05:56:08.229Z,2.80
2019-02-07T05:58:54.644Z,2.90
2019-02-07T06:01:41.109Z,2.90
2019-02-07T06:04:23.885Z,3.00
2019-02-07T06:07:03.073Z,3.10
2019-02-07T06:09:33.277Z,3.20
2019-02-07T06:12:09.378Z,3.20
2019-02-07T06:14:57.545Z,3.20
2019-02-07T06:17:33.250Z,3.20
2019-02-07T06:20:18.265Z,3.10
2019-02-07T06:22:51.155Z,3.10
2019-02-07T06:25:27.188Z,3.00
2019-02-07T06:27:57.475Z,3.10
2019-02-07T06:30:27.744Z,3.20
2019-02-07T06:32:57.967Z,3.30
2019-02-07T06:35:28.163Z,3.30
2019-02-07T06:38:14.204Z,3.40
2019-02-07T06:40:44.436Z,3.40
2019-02-07T06:43:20.321Z,3.40
2019-02-07T06:45:59.587Z,3.50
2019-02-07T06:48:38.839Z,3.60
2019-02-07T06:51:18.769Z,3.70
2019-02-07T06:53:59.598Z,3.80
2019-02-07T06:56:32.795Z,3.80
2019-02-07T06:59:03.012Z,3.90
2019-02-07T07:01:42.859Z,3.90
2019-02-07T07:04:24.911Z,4.00
2019-02-07T07:07:06.921Z,3.90
2019-02-07T07:09:53.535Z,4.00
2019-02-07T07:12:32.196Z,4.10
2019-02-07T07:15:05.114Z,4.10
2019-02-07T07:17:42.360Z,4.10
2019-02-07T07:20:25.891Z,4.20
2019-02-07T07:23:12.348Z,4.30
2019-02-07T07:25:48.788Z,4.30
2019-02-07T07:28:30.634Z,4.40
2019-02-07T07:31:00.819Z,4.40
2019-02-07T07:33:33.834Z,4.40
2019-02-07T07:36:13.180Z,4.40
2019-02-07T07:38:43.495Z,4.50
2019-02-07T07:41:16.603Z,4.60
2019-02-07T07:43:46.978Z,4.60
2019-02-07T07:46:23.133Z,4.60
2019-02-07T07:49:11.258Z,4.70
2019-02-07T07:51:52.188Z,4.80
2019-02-07T07:54:38.517Z,4.70
2019-02-07T07:57:14.757Z,4.80
2019-02-07T07:59:50.818Z,4.80
2019-02-07T08:02:30.183Z,4.90
2019-02-07T08:05:00.448Z,4.90
2019-02-07T08:07:39.565Z,4.90
2019-02-07T08:10:18.230Z,4.90
2019-02-07T08:12:57.741Z,4.90
2019-02-07T08:15:43.964Z,4.90
2019-02-07T08:18:14.192Z,4.90
2019-02-07T08:20:44.389Z,5.00
2019-02-07T08:23:14.624Z,4.90
2019-02-07T08:25:56.972Z,4.80
2019-02-07T08:28:32.863Z,4.90
2019-02-07T08:31:19.117Z,5.00
2019-02-07T08:34:05.241Z,5.00
2019-02-07T08:36:51.828Z,5.10
2019-02-07T08:39:24.915Z,5.00
2019-02-07T08:42:00.585Z,5.10
2019-02-07T08:44:30.813Z,5.10
2019-02-07T08:47:10.441Z,5.10
2019-02-07T08:49:56.691Z,5.10
2019-02-07T08:52:29.691Z,5.20
2019-02-07T08:55:11.662Z,5.10
2019-02-07T08:57:48.040Z,5.10
2019-02-07T09:00:35.211Z,5.10
2019-02-07T09:03:05.845Z,5.10
2019-02-07T09:05:54.691Z,5.10
2019-02-07T09:08:29.461Z,5.00
2019-02-07T09:11:16.244Z,5.00
2019-02-07T09:13:55.378Z,5.00
2019-02-07T09:16:40.512Z,5.00
2019-02-07T09:19:16.937Z,5.10
2019-02-07T09:21:47.644Z,5.10
2019-02-07T09:24:23.863Z,5.00
2019-02-07T09:26:57.635Z,5.10
2019-02-07T09:29:31.169Z,5.10
2019-02-07T09:32:17.150Z,5.10
2019-02-07T09:34:56.784Z,5.20
2019-02-07T09:37:29.817Z,5.30
2019-02-07T09:40:16.086Z,5.20
2019-02-07T09:42:52.135Z,5.30
2019-02-07T09:45:22.950Z,5.20
2019-02-07T09:47:53.220Z,5.20
2019-02-07T09:50:25.951Z,5.20
2019-02-07T09:53:08.072Z,5.20
2019-02-07T09:55:41.233Z,5.10
2019-02-07T09:58:17.375Z,5.20
2019-02-07T10:00:53.231Z,5.20
2019-02-07T10:03:29.655Z,5.20
2019-02-07T10:06:11.660Z,5.20
2019-02-07T10:08:55.339Z,5.20
2019-02-07T10:11:29.263Z,5.30
2019-02-07T10:14:08.460Z,5.30
2019-02-07T10:16:54.643Z,5.20
2019-02-07T10:19:24.904Z,5.30
2019-02-07T10:21:57.572Z,5.30
2019-02-07T10:24:30.894Z,5.40
2019-02-07T10:27:10.296Z,5.30
2019-02-07T10:29:43.597Z,5.40
2019-02-07T10:32:16.512Z,5.60
2019-02-07T10:34:52.732Z,5.60
2019-02-07T10:37:23.673Z,5.60
2019-02-07T10:40:02.849Z,5.50
2019-02-07T10:42:48.031Z,5.60
2019-02-07T10:45:34.392Z,5.50
2019-02-07T10:48:24.749Z,5.50
2019-02-07T10:50:57.513Z,5.60
2019-02-07T10:53:42.948Z,5.60
2019-02-07T10:56:29.516Z,5.60
2019-02-07T10:59:02.375Z,5.70
2019-02-07T11:01:40.331Z,5.70
2019-02-07T11:04:16.327Z,5.70
2019-02-07T11:06:55.288Z,5.80
2019-02-07T11:09:42.116Z,5.80
2019-02-07T11:12:21.337Z,5.60
2019-02-07T11:14:54.503Z,5.60
2019-02-07T11:17:33.706Z,5.80
2019-02-07T11:20:15.803Z,5.70
2019-02-07T11:22:46.047Z,5.80
2019-02-07T11:25:31.304Z,5.90
2019-02-07T11:28:10.282Z,5.90
2019-02-07T11:30:40.613Z,5.90
2019-02-07T11:33:23.436Z,6.00
2019-02-07T11:36:02.841Z,6.00
2019-02-07T11:38:47.933Z,6.10
2019-02-07T11:41:23.714Z,6.00
2019-02-07T11:44:03.059Z,6.10
2019-02-07T11:46:37.289Z,6.10
2019-02-07T11:49:07.093Z,6.10
2019-02-07T11:51:51.653Z,6.10
2019-02-07T11:54:21.924Z,6.20
2019-02-07T11:56:58.256Z,6.10
2019-02-07T11:59:29.078Z,6.20
2019-02-07T12:02:09.232Z,6.20
2019-02-07T12:04:34.653Z,6.20
2019-02-07T12:07:21.104Z,6.30
2019-02-07T12:09:57.588Z,6.30
2019-02-07T12:12:34.095Z,6.30
2019-02-07T12:15:04.293Z,6.40
2019-02-07T12:17:43.318Z,6.50
2019-02-07T12:20:26.368Z,6.40
2019-02-07T12:23:13.025Z,6.40
2019-02-07T12:25:46.267Z,6.40
2019-02-07T12:28:22.376Z,6.40
2019-02-07T12:31:04.969Z,6.40
2019-02-07T12:33:50.256Z,6.40
2019-02-07T12:36:20.528Z,6.50
2019-02-07T12:38:50.867Z,6.50
2019-02-07T12:41:36.796Z,6.50
2019-02-07T12:44:10.010Z,6.50
2019-02-07T12:46:42.713Z,6.50
2019-02-07T12:49:12.984Z,6.50
2019-02-07T12:51:48.668Z,6.60
2019-02-07T12:54:21.694Z,6.50
2019-02-07T12:57:00.768Z,6.50
2019-02-07T12:59:47.188Z,6.60
2019-02-07T13:02:32.190Z,6.60
2019-02-07T13:05:09.630Z,6.70
2019-02-07T13:07:49.057Z,6.70
2019-02-07T13:10:31.148Z,6.80
2019-02-07T13:13:13.166Z,7.00
2019-02-07T13:15:44.703Z,7.00
2019-02-07T13:18:15.020Z,7.10
2019-02-07T13:20:45.216Z,7.20
2019-02-07T13:23:31.403Z,7.30
2019-02-07T13:26:04.373Z,7.30
2019-02-07T13:28:37.396Z,7.30
2019-02-07T13:31:10.766Z,7.30
2019-02-07T13:33:52.998Z,7.30
2019-02-07T13:36:23.222Z,7.20
2019-02-07T13:38:53.478Z,7.20
2019-02-07T13:41:29.643Z,7.20
2019-02-07T13:44:05.657Z,7.20
2019-02-07T13:46:52.720Z,7.20
2019-02-07T13:49:23.044Z,7.20
2019-02-07T13:52:04.854Z,7.20
2019-02-07T13:54:35.391Z,7.30
2019-02-07T13:57:06.024Z,7.20
2019-02-07T13:59:38.975Z,7.30
2019-02-07T14:02:09.911Z,7.20
2019-02-07T14:04:42.980Z,7.20
2019-02-07T14:07:13.380Z,7.10
2019-02-07T14:09:58.479Z,7.00
2019-02-07T14:12:34.097Z,7.10
2019-02-07T14:15:04.417Z,7.00
2019-02-07T14:17:37.573Z,7.10
2019-02-07T14:20:10.432Z,7.20
2019-02-07T14:22:52.279Z,7.30
2019-02-07T14:25:38.600Z,7.30
2019-02-07T14:28:11.836Z,7.30
2019-02-07T14:30:51.118Z,7.40
2019-02-07T14:33:37.368Z,7.30
2019-02-07T14:36:23.848Z,7.40
2019-02-07T14:38:57.061Z,7.20
2019-02-07T14:41:43.560Z,7.30
2019-02-07T14:44:13.830Z,7.30
2019-02-07T14:46:51.559Z,7.20
2019-02-07T14:49:20.265Z,7.10
2019-02-07T14:51:48.895Z,7.20
2019-02-07T14:54:17.587Z,7.30
2019-02-07T14:56:46.216Z,7.30
2019-02-07T14:59:14.913Z,7.30
2019-02-07T15:01:43.543Z,7.40
2019-02-07T15:04:12.437Z,7.40
2019-02-07T15:06:41.257Z,7.40
2019-02-07T15:09:14.779Z,7.50
2019-02-07T15:11:43.472Z,7.40
2019-02-07T15:14:12.173Z,7.60
2019-02-07T15:16:40.872Z,7.60
2019-02-07T15:19:09.747Z,7.60
2019-02-07T15:21:38.320Z,7.60
2019-02-07T15:24:08.386Z,7.60
2019-02-07T15:26:37.060Z,7.70
2019-02-07T15:29:06.033Z,7.70
2019-02-07T15:31:34.594Z,7.70
2019-02-07T15:34:05.044Z,7.70
2019-02-07T15:36:33.607Z,7.70
2019-02-07T15:39:02.891Z,7.80
2019-02-07T15:41:34.472Z,7.80
2019-02-07T15:44:04.384Z,7.80
2019-02-07T15:46:33.391Z,7.80
2019-02-07T15:49:03.290Z,8.00
2019-02-07T15:51:34.253Z,7.90
2019-02-07T15:54:05.393Z,7.80
2019-02-07T15:56:34.020Z,7.80
2019-02-07T15:59:07.207Z,7.80
2019-02-07T16:01:37.548Z,7.70
2019-02-07T16:04:08.035Z,7.70
2019-02-07T16:06:36.670Z,7.70
2019-02-07T16:09:07.811Z,7.70
2019-02-07T16:11:36.448Z,7.70
2019-02-07T16:14:05.349Z,7.70
2019-02-07T16:16:33.984Z,7.60
2019-02-07T16:19:02.616Z,7.60
2019-02-07T16:21:31.939Z,7.50
2019-02-07T16:24:00.500Z,7.50
2019-02-07T16:26:29.199Z,7.50
2019-02-07T16:28:58.004Z,7.50
2019-02-07T16:31:27.600Z,7.40
2019-02-07T16:33:56.160Z,7.40
2019-02-07T16:36:24.929Z,7.40
2019-02-07T16:38:53.558Z,7.30
2019-02-07T16:41:22.262Z,7.30
2019-02-07T16:43:50.888Z,7.30
2019-02-07T16:46:19.597Z,7.30
2019-02-07T16:48:48.221Z,7.30
2019-02-07T16:51:17.001Z,7.20
2019-02-07T16:53:47.936Z,7.20
2019-02-07T16:56:16.735Z,7.10
2019-02-07T16:58:45.298Z,7.20
2019-02-07T17:01:14.065Z,7.20
2019-02-07T17:03:42.623Z,7.20
2019-02-07T17:06:11.324Z,7.20
2019-02-07T17:08:40.184Z,7.20
2019-02-07T17:11:08.893Z,7.10
2019-02-07T17:13:37.520Z,7.10
2019-02-07T17:16:06.501Z,7.10
2019-02-07T17:18:35.060Z,6.90
2019-02-07T17:21:11.413Z,6.90
2019-02-07T17:23:34.312Z,6.90
2019-02-07T17:26:03.017Z,6.80
2019-02-07T17:28:31.703Z,6.60
2019-02-07T17:31:00.404Z,6.60
2019-02-07T17:33:28.973Z,6.50
2019-02-07T17:35:57.743Z,6.50
2019-02-07T17:38:26.309Z,6.40
2019-02-07T17:40:55.043Z,6.40
2019-02-07T17:43:23.671Z,6.30
2019-02-07T17:45:52.436Z,6.30
2019-02-07T17:48:21.069Z,6.20
2019-02-07T17:50:49.701Z,6.10
2019-02-07T17:53:18.336Z,6.00
2019-02-07T17:55:47.005Z,5.90
2019-02-07T17:58:15.530Z,5.60
2019-02-07T18:00:51.904Z,5.40
2019-02-07T18:03:20.535Z,5.50
2019-02-07T18:05:49.168Z,5.50
2019-02-07T18:08:18.438Z,5.50
2019-02-07T18:10:47.616Z,5.30
2019-02-07T18:13:16.236Z,5.40
2019-02-07T18:15:44.873Z,5.30
2019-02-07T18:18:13.433Z,5.10
2019-02-07T18:20:42.136Z,5.10
2019-02-07T18:23:10.705Z,5.20
2019-02-07T18:25:39.252Z,4.90
2019-02-07T18:28:08.156Z,4.80
2019-02-07T18:30:36.860Z,4.80
2019-02-07T18:33:05.617Z,4.70
2019-02-07T18:35:34.170Z,4.70
2019-02-07T18:38:02.796Z,4.60
2019-02-07T18:40:32.291Z,4.60
2019-02-07T18:43:01.298Z,4.50
2019-02-07T18:45:29.932Z,4.60
2019-02-07T18:47:58.639Z,4.60
2019-02-07T18:50:32.948Z,4.40
2019-02-07T18:53:01.726Z,4.40
2019-02-07T18:55:30.424Z,4.40
2019-02-07T18:57:59.498Z,4.50
2019-02-07T19:00:35.376Z,4.40
2019-02-07T19:03:05.072Z,4.30
2019-02-07T19:05:33.633Z,4.40
2019-02-07T19:08:02.307Z,4.50
2019-02-07T19:10:30.902Z,4.40
2019-02-07T19:12:59.905Z,4.60
2019-02-07T19:15:43.514Z,4.60
2019-02-07T19:18:12.140Z,4.60
2019-02-07T19:20:40.701Z,4.50
2019-02-07T19:23:11.006Z,4.50
2019-02-07T19:25:39.858Z,4.50
2019-02-07T19:28:08.696Z,4.50
2019-02-07T19:30:37.395Z,4.50
2019-02-07T19:33:06.376Z,4.40
2019-02-07T19:35:34.938Z,4.40
2019-02-07T19:38:03.708Z,4.30
2019-02-07T19:40:32.264Z,4.40
2019-02-07T19:43:01.747Z,4.40
2019-02-07T19:45:30.380Z,4.50
2019-02-07T19:47:59.019Z,4.50
2019-02-07T19:50:28.323Z,4.30
2019-02-07T19:52:57.309Z,4.30
2019-02-07T19:55:31.393Z,4.10
2019-02-07T19:58:00.095Z,4.10
2019-02-07T20:00:33.686Z,4.10
2019-02-07T20:03:02.465Z,4.00
2019-02-07T20:05:31.157Z,4.00
2019-02-07T20:07:59.867Z,3.90
2019-02-07T20:10:30.324Z,3.90
2019-02-07T20:12:59.825Z,3.90
2019-02-07T20:15:31.192Z,3.80
2019-02-07T20:18:00.193Z,3.80
2019-02-07T20:20:28.896Z,3.60
2019-02-07T20:22:57.859Z,3.60
2019-02-07T20:25:26.665Z,3.60
2019-02-07T20:27:55.674Z,3.60
2019-02-07T20:30:29.887Z,3.60
2019-02-07T20:32:58.774Z,3.60
2019-02-07T20:35:27.464Z,3.60
2019-02-07T20:37:56.177Z,3.60
2019-02-07T20:40:27.187Z,3.50
2019-02-07T20:42:55.955Z,3.60
2019-02-07T20:45:25.047Z,3.50
2019-02-07T20:47:53.748Z,3.50
2019-02-07T20:50:24.732Z,3.40
2019-02-07T20:52:53.517Z,3.40
2019-02-07T20:55:22.627Z,3.40
2019-02-07T20:57:52.388Z,3.40
2019-02-07T21:00:30.204Z,3.40
2019-02-07T21:02:58.839Z,3.40
2019-02-07T21:05:28.748Z,3.50
2019-02-07T21:07:57.728Z,3.60
2019-02-07T21:10:39.831Z,3.70
2019-02-07T21:13:08.809Z,3.80
2019-02-07T21:15:37.556Z,3.80
2019-02-07T21:18:06.525Z,3.90
2019-02-07T21:20:36.646Z,3.90
2019-02-07T21:23:05.928Z,4.00
2019-02-07T21:25:43.257Z,4.00
2019-02-07T21:28:12.408Z,4.00
2019-02-07T21:30:41.155Z,4.10
2019-02-07T21:33:09.808Z,4.20
2019-02-07T21:35:38.368Z,4.20
2019-02-07T21:38:07.646Z,4.30
2019-02-07T21:40:36.436Z,4.30
2019-02-07T21:43:06.433Z,4.40
2019-02-07T21:45:35.326Z,4.50
2019-02-07T21:48:05.505Z,4.70
2019-02-07T21:50:34.127Z,4.90
2019-02-07T21:53:02.751Z,5.00
2019-02-07T21:55:32.651Z,5.10
2019-02-07T21:58:01.877Z,5.20
2019-02-07T22:00:35.572Z,5.20
2019-02-07T22:03:06.042Z,5.30
2019-02-07T22:05:34.595Z,5.40
2019-02-07T22:08:03.349Z,5.50
2019-02-07T22:10:32.047Z,5.50
2019-02-07T22:13:00.656Z,5.50
2019-02-07T22:15:29.648Z,5.40
2019-02-07T22:17:58.258Z,5.50
2019-02-07T22:20:30.297Z,5.40
2019-02-07T22:22:59.628Z,5.40
2019-02-07T22:25:28.257Z,5.40
2019-02-07T22:27:56.987Z,5.40
2019-02-07T22:30:31.555Z,5.40
2019-02-07T22:33:00.283Z,5.50
2019-02-07T22:35:29.473Z,5.40
2019-02-07T22:37:58.310Z,5.40
2019-02-07T22:40:27.104Z,5.20
2019-02-07T22:42:56.045Z,5.20
2019-02-07T22:45:26.247Z,5.10
2019-02-07T22:47:55.172Z,5.10
2019-02-07T22:50:28.801Z,5.10
2019-02-07T22:52:57.695Z,5.00
2019-02-07T22:55:26.434Z,5.10
2019-02-07T22:57:55.136Z,5.10
2019-02-07T23:00:42.149Z,5.10
2019-02-07T23:03:18.791Z,5.20
2019-02-07T23:05:47.342Z,5.20
2019-02-07T23:08:16.197Z,5.10
2019-02-07T23:10:45.118Z,5.10
2019-02-07T23:13:13.740Z,5.10
2019-02-07T23:15:42.477Z,5.10
2019-02-07T23:18:11.181Z,5.20
2019-02-07T23:20:39.850Z,5.20
2019-02-07T23:23:12.051Z,5.10
2019-02-07T23:25:41.241Z,5.10
2019-02-07T23:28:10.141Z,5.10
2019-02-07T23:30:38.807Z,5.10
2019-02-07T23:33:07.504Z,5.00
2019-02-07T23:35:36.107Z,5.00
2019-02-07T23:38:05.607Z,5.00
2019-02-07T23:40:34.272Z,4.90
2019-02-07T23:43:02.998Z,4.80
2019-02-07T23:45:31.589Z,4.90
2019-02-07T23:48:00.226Z,4.80
2019-02-07T23:50:28.949Z,4.80
2019-02-07T23:52:57.509Z,4.90
2019-02-07T23:55:26.105Z,5.00
2019-02-07T23:57:54.733Z,5.00
